sensor_id;sensor_type;location;lat;lon;timestamp;temperature;humidity
7496;DHT22;3789;47.064;15.482;2023-04-24T00:01:58;9.50;99.90
7496;DHT22;3789;47.064;15.482;2023-04-24T00:04:26;9.40;99.90
7496;DHT22;3789;47.064;15.482;2023-04-24T00:06:59;9.40;99.90
7496;DHT22;3789;47.064;15.482;2023-04-24T00:09:29;9.30;99.90
7496;DHT22;3789;47.064;15.482;2023-04-24T00:12:02;9.30;99.90
7496;DHT22;3789;47.064;15.482;2023-04-24T00:14:37;9.20;99.90
7496;DHT22;3789;47.064;15.482;2023-04-24T00:17:15;9.10;99.90
7496;DHT22;3789;47.064;15.482;2023-04-24T00:19:49;9.00;99.90
7496;DHT22;3789;47.064;15.482;2023-04-24T00:22:21;9.00;99.90
7496;DHT22;3789;47.064;15.482;2023-04-24T00:24:57;9.00;99.90
7496;DHT22;3789;47.064;15.482;2023-04-24T00:27:28;9.00;99.90
7496;DHT22;3789;47.064;15.482;2023-04-24T00:29:56;8.90;99.90
7496;DHT22;3789;47.064;15.482;2023-04-24T00:32:25;8.80;99.90
7496;DHT22;3789;47.064;15.482;2023-04-24T00:34:56;8.70;99.90
7496;DHT22;3789;47.064;15.482;2023-04-24T00:37:23;8.70;99.90
7496;DHT22;3789;47.064;15.482;2023-04-24T00:39:54;8.60;99.90
7496;DHT22;3789;47.064;15.482;2023-04-24T00:42:25;8.70;99.90
7496;DHT22;3789;47.064;15.482;2023-04-24T00:44:58;8.70;99.90
7496;DHT22;3789;47.064;15.482;2023-04-24T00:47:31;8.80;99.90
7496;DHT22;3789;47.064;15.482;2023-04-24T00:50:29;8.80;99.90
7496;DHT22;3789;47.064;15.482;2023-04-24T00:53:07;8.80;99.90
7496;DHT22;3789;47.064;15.482;2023-04-24T00:56:13;8.90;99.90
7496;DHT22;3789;47.064;15.482;2023-04-24T00:58:54;9.00;99.90
7496;DHT22;3789;47.064;15.482;2023-04-24T01:02:22;9.00;99.90
7496;DHT22;3789;47.064;15.482;2023-04-24T01:08:26;9.10;99.90
7496;DHT22;3789;47.064;15.482;2023-04-24T01:11:24;9.10;99.90
7496;DHT22;3789;47.064;15.482;2023-04-24T01:14:28;9.10;99.90
7496;DHT22;3789;47.064;15.482;2023-04-24T01:20:14;9.20;99.90
7496;DHT22;3789;47.064;15.482;2023-04-24T01:23:09;9.20;99.90
7496;DHT22;3789;47.064;15.482;2023-04-24T01:26:07;9.20;99.90
7496;DHT22;3789;47.064;15.482;2023-04-24T01:28:51;9.00;99.90
7496;DHT22;3789;47.064;15.482;2023-04-24T01:31:34;8.80;99.90
7496;DHT22;3789;47.064;15.482;2023-04-24T01:34:14;8.70;99.90
7496;DHT22;3789;47.064;15.482;2023-04-24T01:37:34;8.70;99.90
7496;DHT22;3789;47.064;15.482;2023-04-24T01:40:13;8.60;99.90
7496;DHT22;3789;47.064;15.482;2023-04-24T01:43:12;8.60;99.90
7496;DHT22;3789;47.064;15.482;2023-04-24T01:49:11;8.60;99.90
7496;DHT22;3789;47.064;15.482;2023-04-24T01:51:45;8.60;99.90
7496;DHT22;3789;47.064;15.482;2023-04-24T01:54:41;8.60;99.90
7496;DHT22;3789;47.064;15.482;2023-04-24T01:57:32;8.60;99.90
7496;DHT22;3789;47.064;15.482;2023-04-24T02:00:45;8.60;99.90
7496;DHT22;3789;47.064;15.482;2023-04-24T02:03:47;8.60;99.90
7496;DHT22;3789;47.064;15.482;2023-04-24T02:06:37;8.60;99.90
7496;DHT22;3789;47.064;15.482;2023-04-24T02:09:37;8.70;99.90
7496;DHT22;3789;47.064;15.482;2023-04-24T02:12:20;8.70;99.90
7496;DHT22;3789;47.064;15.482;2023-04-24T02:15:16;8.70;99.90
7496;DHT22;3789;47.064;15.482;2023-04-24T02:17:50;8.60;99.90
7496;DHT22;3789;47.064;15.482;2023-04-24T02:20:49;8.70;99.90
7496;DHT22;3789;47.064;15.482;2023-04-24T02:23:25;8.70;99.90
7496;DHT22;3789;47.064;15.482;2023-04-24T02:26:17;8.60;99.90
7496;DHT22;3789;47.064;15.482;2023-04-24T02:29:01;8.60;99.90
7496;DHT22;3789;47.064;15.482;2023-04-24T02:31:51;8.70;99.90
7496;DHT22;3789;47.064;15.482;2023-04-24T02:34:27;8.80;99.90
7496;DHT22;3789;47.064;15.482;2023-04-24T02:37:06;9.00;99.90
7496;DHT22;3789;47.064;15.482;2023-04-24T02:39:54;9.00;99.90
7496;DHT22;3789;47.064;15.482;2023-04-24T02:42:41;9.00;99.90
7496;DHT22;3789;47.064;15.482;2023-04-24T02:45:14;9.00;99.90
7496;DHT22;3789;47.064;15.482;2023-04-24T02:48:10;9.00;99.90
7496;DHT22;3789;47.064;15.482;2023-04-24T02:50:56;8.90;99.90
7496;DHT22;3789;47.064;15.482;2023-04-24T02:53:36;8.80;99.90
7496;DHT22;3789;47.064;15.482;2023-04-24T02:56:19;8.80;99.90
7496;DHT22;3789;47.064;15.482;2023-04-24T02:59:03;8.80;99.90
7496;DHT22;3789;47.064;15.482;2023-04-24T03:01:43;8.80;99.90
7496;DHT22;3789;47.064;15.482;2023-04-24T03:04:43;8.80;99.90
7496;DHT22;3789;47.064;15.482;2023-04-24T03:07:38;8.80;99.90
7496;DHT22;3789;47.064;15.482;2023-04-24T03:10:19;8.60;99.90
7496;DHT22;3789;47.064;15.482;2023-04-24T03:12:56;8.60;99.90
7496;DHT22;3789;47.064;15.482;2023-04-24T03:15:34;8.60;99.90
7496;DHT22;3789;47.064;15.482;2023-04-24T03:18:10;8.50;99.90
7496;DHT22;3789;47.064;15.482;2023-04-24T03:20:45;8.50;99.90
7496;DHT22;3789;47.064;15.482;2023-04-24T03:23:26;8.40;99.90
7496;DHT22;3789;47.064;15.482;2023-04-24T03:26:03;8.40;99.90
7496;DHT22;3789;47.064;15.482;2023-04-24T03:28:46;8.50;99.90
7496;DHT22;3789;47.064;15.482;2023-04-24T03:31:16;8.40;99.90
7496;DHT22;3789;47.064;15.482;2023-04-24T03:33:54;8.40;99.90
7496;DHT22;3789;47.064;15.482;2023-04-24T03:36:37;8.40;99.90
7496;DHT22;3789;47.064;15.482;2023-04-24T03:39:08;8.50;99.90
7496;DHT22;3789;47.064;15.482;2023-04-24T03:41:51;8.50;99.90
7496;DHT22;3789;47.064;15.482;2023-04-24T03:44:35;8.50;99.90
7496;DHT22;3789;47.064;15.482;2023-04-24T03:47:20;8.50;99.90
7496;DHT22;3789;47.064;15.482;2023-04-24T03:50:00;8.40;99.90
7496;DHT22;3789;47.064;15.482;2023-04-24T03:52:54;8.40;99.90
7496;DHT22;3789;47.064;15.482;2023-04-24T03:55:37;8.40;99.90
7496;DHT22;3789;47.064;15.482;2023-04-24T04:01:37;8.60;99.90
7496;DHT22;3789;47.064;15.482;2023-04-24T04:04:31;8.70;99.90
7496;DHT22;3789;47.064;15.482;2023-04-24T04:07:26;8.70;99.90
7496;DHT22;3789;47.064;15.482;2023-04-24T04:10:09;8.80;99.90
7496;DHT22;3789;47.064;15.482;2023-04-24T04:12:49;8.80;99.90
7496;DHT22;3789;47.064;15.482;2023-04-24T04:15:38;8.90;99.90
7496;DHT22;3789;47.064;15.482;2023-04-24T04:18:24;8.90;99.90
7496;DHT22;3789;47.064;15.482;2023-04-24T04:21:04;8.90;99.90
7496;DHT22;3789;47.064;15.482;2023-04-24T04:23:45;8.90;99.90
7496;DHT22;3789;47.064;15.482;2023-04-24T04:26:51;9.00;99.90
7496;DHT22;3789;47.064;15.482;2023-04-24T04:29:30;9.00;99.90
7496;DHT22;3789;47.064;15.482;2023-04-24T04:32:24;9.10;99.90
7496;DHT22;3789;47.064;15.482;2023-04-24T04:35:16;9.10;99.90
7496;DHT22;3789;47.064;15.482;2023-04-24T04:37:53;9.20;99.90
7496;DHT22;3789;47.064;15.482;2023-04-24T04:40:32;9.10;99.90
7496;DHT22;3789;47.064;15.482;2023-04-24T04:43:08;9.10;99.90
7496;DHT22;3789;47.064;15.482;2023-04-24T04:45:55;9.20;99.90
7496;DHT22;3789;47.064;15.482;2023-04-24T04:48:46;9.20;99.90
7496;DHT22;3789;47.064;15.482;2023-04-24T04:51:44;9.20;99.90
7496;DHT22;3789;47.064;15.482;2023-04-24T04:54:26;9.20;99.90
7496;DHT22;3789;47.064;15.482;2023-04-24T04:57:13;9.30;99.90
7496;DHT22;3789;47.064;15.482;2023-04-24T04:59:49;9.30;99.90
7496;DHT22;3789;47.064;15.482;2023-04-24T05:02:22;9.40;99.90
7496;DHT22;3789;47.064;15.482;2023-04-24T05:05:12;9.40;99.90
7496;DHT22;3789;47.064;15.482;2023-04-24T05:10:55;9.40;99.90
7496;DHT22;3789;47.064;15.482;2023-04-24T05:13:35;9.40;99.90
7496;DHT22;3789;47.064;15.482;2023-04-24T05:16:07;9.40;99.90
7496;DHT22;3789;47.064;15.482;2023-04-24T05:18:50;9.50;99.90
7496;DHT22;3789;47.064;15.482;2023-04-24T05:21:40;9.50;99.90
7496;DHT22;3789;47.064;15.482;2023-04-24T05:24:33;9.40;99.90
7496;DHT22;3789;47.064;15.482;2023-04-24T05:27:28;9.40;99.90
7496;DHT22;3789;47.064;15.482;2023-04-24T05:30:02;9.50;99.90
7496;DHT22;3789;47.064;15.482;2023-04-24T05:32:39;9.50;99.90
7496;DHT22;3789;47.064;15.482;2023-04-24T05:35:08;9.60;99.90
7496;DHT22;3789;47.064;15.482;2023-04-24T05:37:37;9.70;99.90
7496;DHT22;3789;47.064;15.482;2023-04-24T05:40:13;9.70;99.90
7496;DHT22;3789;47.064;15.482;2023-04-24T05:42:56;9.70;99.90
7496;DHT22;3789;47.064;15.482;2023-04-24T05:45:33;9.80;99.90
7496;DHT22;3789;47.064;15.482;2023-04-24T05:48:35;9.70;99.90
7496;DHT22;3789;47.064;15.482;2023-04-24T05:51:13;9.70;99.90
7496;DHT22;3789;47.064;15.482;2023-04-24T05:53:58;9.80;99.90
7496;DHT22;3789;47.064;15.482;2023-04-24T05:56:56;9.80;99.90
7496;DHT22;3789;47.064;15.482;2023-04-24T05:59:37;9.90;99.90
7496;DHT22;3789;47.064;15.482;2023-04-24T06:02:06;9.90;99.90
7496;DHT22;3789;47.064;15.482;2023-04-24T06:04:42;9.90;99.90
7496;DHT22;3789;47.064;15.482;2023-04-24T06:07:13;10.00;99.90
7496;DHT22;3789;47.064;15.482;2023-04-24T06:09:50;10.00;99.90
7496;DHT22;3789;47.064;15.482;2023-04-24T06:12:25;10.10;99.90
7496;DHT22;3789;47.064;15.482;2023-04-24T06:15:05;10.30;99.90
7496;DHT22;3789;47.064;15.482;2023-04-24T06:17:55;10.60;99.90
7496;DHT22;3789;47.064;15.482;2023-04-24T06:20:24;10.80;99.90
7496;DHT22;3789;47.064;15.482;2023-04-24T06:22:58;11.10;99.90
7496;DHT22;3789;47.064;15.482;2023-04-24T06:25:31;11.50;99.90
7496;DHT22;3789;47.064;15.482;2023-04-24T06:28:23;11.70;99.90
7496;DHT22;3789;47.064;15.482;2023-04-24T06:31:09;12.00;99.90
7496;DHT22;3789;47.064;15.482;2023-04-24T06:33:57;12.20;99.90
7496;DHT22;3789;47.064;15.482;2023-04-24T06:36:42;12.40;99.90
7496;DHT22;3789;47.064;15.482;2023-04-24T06:39:22;12.80;99.90
7496;DHT22;3789;47.064;15.482;2023-04-24T06:42:05;13.20;99.90
7496;DHT22;3789;47.064;15.482;2023-04-24T06:44:54;13.60;99.90
7496;DHT22;3789;47.064;15.482;2023-04-24T06:47:40;14.10;99.90
7496;DHT22;3789;47.064;15.482;2023-04-24T06:50:17;14.50;99.90
7496;DHT22;3789;47.064;15.482;2023-04-24T06:52:46;14.90;99.90
7496;DHT22;3789;47.064;15.482;2023-04-24T06:55:14;15.20;99.90
7496;DHT22;3789;47.064;15.482;2023-04-24T06:57:46;15.30;99.90
7496;DHT22;3789;47.064;15.482;2023-04-24T07:00:14;15.30;99.90
7496;DHT22;3789;47.064;15.482;2023-04-24T07:02:43;15.30;99.90
7496;DHT22;3789;47.064;15.482;2023-04-24T07:05:11;15.20;99.90
7496;DHT22;3789;47.064;15.482;2023-04-24T07:07:40;15.20;99.90
7496;DHT22;3789;47.064;15.482;2023-04-24T07:10:19;15.10;99.90
7496;DHT22;3789;47.064;15.482;2023-04-24T07:12:56;15.00;99.90
7496;DHT22;3789;47.064;15.482;2023-04-24T07:15:25;15.00;99.90
7496;DHT22;3789;47.064;15.482;2023-04-24T07:17:53;14.90;99.90
7496;DHT22;3789;47.064;15.482;2023-04-24T07:20:23;14.80;99.90
7496;DHT22;3789;47.064;15.482;2023-04-24T07:22:54;14.70;99.90
7496;DHT22;3789;47.064;15.482;2023-04-24T07:25:23;14.60;99.90
7496;DHT22;3789;47.064;15.482;2023-04-24T07:27:54;14.50;99.90
7496;DHT22;3789;47.064;15.482;2023-04-24T07:30:31;14.40;99.90
7496;DHT22;3789;47.064;15.482;2023-04-24T07:33:04;14.30;99.90
7496;DHT22;3789;47.064;15.482;2023-04-24T07:35:47;14.10;99.90
7496;DHT22;3789;47.064;15.482;2023-04-24T07:38:19;14.10;99.90
7496;DHT22;3789;47.064;15.482;2023-04-24T07:40:52;13.90;99.90
7496;DHT22;3789;47.064;15.482;2023-04-24T07:43:28;13.70;99.90
7496;DHT22;3789;47.064;15.482;2023-04-24T07:45:57;13.70;99.90
7496;DHT22;3789;47.064;15.482;2023-04-24T07:48:27;13.70;99.90
7496;DHT22;3789;47.064;15.482;2023-04-24T07:50:55;13.60;99.90
7496;DHT22;3789;47.064;15.482;2023-04-24T07:53:25;13.40;99.90
7496;DHT22;3789;47.064;15.482;2023-04-24T07:55:56;13.20;99.90
7496;DHT22;3789;47.064;15.482;2023-04-24T07:58:24;12.80;99.90
7496;DHT22;3789;47.064;15.482;2023-04-24T08:00:53;12.50;99.90
7496;DHT22;3789;47.064;15.482;2023-04-24T08:03:25;12.40;99.90
7496;DHT22;3789;47.064;15.482;2023-04-24T08:05:55;12.20;99.90
7496;DHT22;3789;47.064;15.482;2023-04-24T08:08:25;12.10;99.90
7496;DHT22;3789;47.064;15.482;2023-04-24T08:10:53;12.10;99.90
7496;DHT22;3789;47.064;15.482;2023-04-24T08:13:25;12.00;99.90
7496;DHT22;3789;47.064;15.482;2023-04-24T08:16:04;11.80;99.90
7496;DHT22;3789;47.064;15.482;2023-04-24T08:18:33;11.70;99.90
7496;DHT22;3789;47.064;15.482;2023-04-24T08:21:02;11.90;99.90
7496;DHT22;3789;47.064;15.482;2023-04-24T08:23:32;12.00;99.90
7496;DHT22;3789;47.064;15.482;2023-04-24T08:26:11;12.20;99.90
7496;DHT22;3789;47.064;15.482;2023-04-24T08:28:39;12.30;99.90
7496;DHT22;3789;47.064;15.482;2023-04-24T08:31:09;12.40;99.90
7496;DHT22;3789;47.064;15.482;2023-04-24T08:33:39;12.40;99.90
7496;DHT22;3789;47.064;15.482;2023-04-24T08:36:08;12.50;99.90
7496;DHT22;3789;47.064;15.482;2023-04-24T08:38:39;12.50;99.90
7496;DHT22;3789;47.064;15.482;2023-04-24T08:41:10;12.60;99.90
7496;DHT22;3789;47.064;15.482;2023-04-24T08:43:41;12.50;99.90
7496;DHT22;3789;47.064;15.482;2023-04-24T08:46:11;12.60;99.90
7496;DHT22;3789;47.064;15.482;2023-04-24T08:48:42;12.60;99.90
7496;DHT22;3789;47.064;15.482;2023-04-24T08:51:10;12.60;99.90
7496;DHT22;3789;47.064;15.482;2023-04-24T08:53:42;12.60;99.90
7496;DHT22;3789;47.064;15.482;2023-04-24T08:56:13;12.60;99.90
7496;DHT22;3789;47.064;15.482;2023-04-24T08:58:42;12.60;99.90
7496;DHT22;3789;47.064;15.482;2023-04-24T09:01:14;12.60;99.90
7496;DHT22;3789;47.064;15.482;2023-04-24T09:03:50;12.60;99.90
7496;DHT22;3789;47.064;15.482;2023-04-24T09:06:22;12.60;99.90
7496;DHT22;3789;47.064;15.482;2023-04-24T09:08:53;12.60;99.90
7496;DHT22;3789;47.064;15.482;2023-04-24T09:11:24;12.60;99.90
7496;DHT22;3789;47.064;15.482;2023-04-24T09:13:54;12.60;99.90
7496;DHT22;3789;47.064;15.482;2023-04-24T09:16:28;12.50;99.90
7496;DHT22;3789;47.064;15.482;2023-04-24T09:19:05;12.50;99.90
7496;DHT22;3789;47.064;15.482;2023-04-24T09:21:37;12.50;99.90
7496;DHT22;3789;47.064;15.482;2023-04-24T09:24:19;12.50;99.90
7496;DHT22;3789;47.064;15.482;2023-04-24T09:27:01;12.50;99.90
7496;DHT22;3789;47.064;15.482;2023-04-24T09:29:35;12.50;99.90
7496;DHT22;3789;47.064;15.482;2023-04-24T09:32:24;12.50;99.90
7496;DHT22;3789;47.064;15.482;2023-04-24T09:35:11;12.50;99.90
7496;DHT22;3789;47.064;15.482;2023-04-24T09:37:46;12.50;99.90
7496;DHT22;3789;47.064;15.482;2023-04-24T09:40:22;12.60;99.90
7496;DHT22;3789;47.064;15.482;2023-04-24T09:42:56;12.60;99.90
7496;DHT22;3789;47.064;15.482;2023-04-24T09:45:40;12.60;99.90
7496;DHT22;3789;47.064;15.482;2023-04-24T09:48:10;12.40;99.90
7496;DHT22;3789;47.064;15.482;2023-04-24T09:50:56;12.40;99.90
7496;DHT22;3789;47.064;15.482;2023-04-24T09:53:25;12.50;99.90
7496;DHT22;3789;47.064;15.482;2023-04-24T09:55:54;12.40;99.90
7496;DHT22;3789;47.064;15.482;2023-04-24T09:58:26;12.30;99.90
7496;DHT22;3789;47.064;15.482;2023-04-24T10:00:56;12.30;99.90
7496;DHT22;3789;47.064;15.482;2023-04-24T10:03:26;12.30;99.90
7496;DHT22;3789;47.064;15.482;2023-04-24T10:06:04;12.50;99.90
7496;DHT22;3789;47.064;15.482;2023-04-24T10:08:39;12.60;99.90
7496;DHT22;3789;47.064;15.482;2023-04-24T10:11:09;12.90;99.90
7496;DHT22;3789;47.064;15.482;2023-04-24T10:13:40;12.90;99.90
7496;DHT22;3789;47.064;15.482;2023-04-24T10:16:09;13.10;99.90
7496;DHT22;3789;47.064;15.482;2023-04-24T10:18:49;13.40;99.90
7496;DHT22;3789;47.064;15.482;2023-04-24T10:21:22;13.70;99.90
7496;DHT22;3789;47.064;15.482;2023-04-24T10:23:53;14.10;99.90
7496;DHT22;3789;47.064;15.482;2023-04-24T10:26:25;14.00;99.90
7496;DHT22;3789;47.064;15.482;2023-04-24T10:28:57;14.00;99.90
7496;DHT22;3789;47.064;15.482;2023-04-24T10:31:28;14.10;99.90
7496;DHT22;3789;47.064;15.482;2023-04-24T10:34:10;14.10;99.90
7496;DHT22;3789;47.064;15.482;2023-04-24T10:36:52;14.10;99.90
7496;DHT22;3789;47.064;15.482;2023-04-24T10:39:28;14.50;99.90
7496;DHT22;3789;47.064;15.482;2023-04-24T10:42:18;14.50;99.90
7496;DHT22;3789;47.064;15.482;2023-04-24T10:45:17;14.30;99.90
7496;DHT22;3789;47.064;15.482;2023-04-24T10:47:56;14.50;99.90
7496;DHT22;3789;47.064;15.482;2023-04-24T10:50:51;14.40;99.90
7496;DHT22;3789;47.064;15.482;2023-04-24T10:53:23;14.30;99.90
7496;DHT22;3789;47.064;15.482;2023-04-24T10:56:09;14.10;99.90
7496;DHT22;3789;47.064;15.482;2023-04-24T10:58:53;13.90;99.90
7496;DHT22;3789;47.064;15.482;2023-04-24T11:01:27;14.00;99.90
7496;DHT22;3789;47.064;15.482;2023-04-24T11:03:59;14.10;99.90
7496;DHT22;3789;47.064;15.482;2023-04-24T11:06:35;14.40;99.90
7496;DHT22;3789;47.064;15.482;2023-04-24T11:09:09;14.70;99.90
7496;DHT22;3789;47.064;15.482;2023-04-24T11:12:07;14.70;99.90
7496;DHT22;3789;47.064;15.482;2023-04-24T11:15:03;14.50;99.90
7496;DHT22;3789;47.064;15.482;2023-04-24T11:17:40;14.50;99.90
7496;DHT22;3789;47.064;15.482;2023-04-24T11:20:27;14.80;99.90
7496;DHT22;3789;47.064;15.482;2023-04-24T11:23:03;15.00;99.90
7496;DHT22;3789;47.064;15.482;2023-04-24T11:25:37;15.10;99.90
7496;DHT22;3789;47.064;15.482;2023-04-24T11:28:15;14.90;99.90
7496;DHT22;3789;47.064;15.482;2023-04-24T11:30:45;15.00;99.90
7496;DHT22;3789;47.064;15.482;2023-04-24T11:33:19;15.20;99.90
7496;DHT22;3789;47.064;15.482;2023-04-24T11:35:52;15.40;99.90
7496;DHT22;3789;47.064;15.482;2023-04-24T11:38:21;15.60;99.90
7496;DHT22;3789;47.064;15.482;2023-04-24T11:40:52;15.50;99.90
7496;DHT22;3789;47.064;15.482;2023-04-24T11:43:23;15.50;99.90
7496;DHT22;3789;47.064;15.482;2023-04-24T11:45:51;15.60;99.90
7496;DHT22;3789;47.064;15.482;2023-04-24T11:48:34;15.70;99.90
7496;DHT22;3789;47.064;15.482;2023-04-24T11:51:06;15.80;99.90
7496;DHT22;3789;47.064;15.482;2023-04-24T11:53:42;15.80;99.90
7496;DHT22;3789;47.064;15.482;2023-04-24T11:56:12;15.90;99.90
7496;DHT22;3789;47.064;15.482;2023-04-24T11:58:47;15.80;99.90
7496;DHT22;3789;47.064;15.482;2023-04-24T12:01:17;15.60;99.90
7496;DHT22;3789;47.064;15.482;2023-04-24T12:03:49;15.20;99.90
7496;DHT22;3789;47.064;15.482;2023-04-24T12:06:20;15.30;99.90
7496;DHT22;3789;47.064;15.482;2023-04-24T12:08:52;15.40;99.90
7496;DHT22;3789;47.064;15.482;2023-04-24T12:11:32;15.50;99.90
7496;DHT22;3789;47.064;15.482;2023-04-24T12:14:12;15.60;99.90
7496;DHT22;3789;47.064;15.482;2023-04-24T12:16:50;15.70;99.90
7496;DHT22;3789;47.064;15.482;2023-04-24T12:19:22;15.50;99.90
7496;DHT22;3789;47.064;15.482;2023-04-24T12:22:05;15.30;99.90
7496;DHT22;3789;47.064;15.482;2023-04-24T12:24:34;15.30;99.90
7496;DHT22;3789;47.064;15.482;2023-04-24T12:27:31;15.10;99.90
7496;DHT22;3789;47.064;15.482;2023-04-24T12:30:21;15.10;99.90
7496;DHT22;3789;47.064;15.482;2023-04-24T12:33:37;15.10;99.90
7496;DHT22;3789;47.064;15.482;2023-04-24T12:36:12;15.10;99.90
7496;DHT22;3789;47.064;15.482;2023-04-24T12:38:44;15.30;99.90
7496;DHT22;3789;47.064;15.482;2023-04-24T12:41:14;15.40;99.90
7496;DHT22;3789;47.064;15.482;2023-04-24T12:43:55;15.50;99.90
7496;DHT22;3789;47.064;15.482;2023-04-24T12:46:23;15.60;99.90
7496;DHT22;3789;47.064;15.482;2023-04-24T12:48:52;15.70;99.90
7496;DHT22;3789;47.064;15.482;2023-04-24T12:51:23;15.60;99.90
7496;DHT22;3789;47.064;15.482;2023-04-24T12:53:52;15.60;99.90
7496;DHT22;3789;47.064;15.482;2023-04-24T12:56:27;15.70;99.90
7496;DHT22;3789;47.064;15.482;2023-04-24T12:58:54;15.80;99.90
7496;DHT22;3789;47.064;15.482;2023-04-24T13:01:35;15.90;99.90
7496;DHT22;3789;47.064;15.482;2023-04-24T13:04:10;15.70;99.90
7496;DHT22;3789;47.064;15.482;2023-04-24T13:07:01;15.60;99.90
7496;DHT22;3789;47.064;15.482;2023-04-24T13:09:56;15.50;99.90
7496;DHT22;3789;47.064;15.482;2023-04-24T13:12:48;15.70;99.90
7496;DHT22;3789;47.064;15.482;2023-04-24T13:15:41;15.20;99.90
7496;DHT22;3789;47.064;15.482;2023-04-24T13:18:34;15.70;99.90
7496;DHT22;3789;47.064;15.482;2023-04-24T13:21:26;15.90;99.90
7496;DHT22;3789;47.064;15.482;2023-04-24T13:24:21;15.70;99.90
7496;DHT22;3789;47.064;15.482;2023-04-24T13:27:17;15.90;99.90
7496;DHT22;3789;47.064;15.482;2023-04-24T13:30:11;16.10;99.90
7496;DHT22;3789;47.064;15.482;2023-04-24T13:33:03;16.30;99.90
7496;DHT22;3789;47.064;15.482;2023-04-24T13:35:55;16.40;99.90
7496;DHT22;3789;47.064;15.482;2023-04-24T13:38:23;16.10;99.90
7496;DHT22;3789;47.064;15.482;2023-04-24T13:40:52;15.80;99.90
7496;DHT22;3789;47.064;15.482;2023-04-24T13:43:28;15.60;99.90
7496;DHT22;3789;47.064;15.482;2023-04-24T13:46:02;15.10;99.90
7496;DHT22;3789;47.064;15.482;2023-04-24T13:48:30;14.90;99.90
7496;DHT22;3789;47.064;15.482;2023-04-24T13:51:00;14.80;99.90
7496;DHT22;3789;47.064;15.482;2023-04-24T13:53:28;14.90;99.90
7496;DHT22;3789;47.064;15.482;2023-04-24T13:55:58;15.00;99.90
7496;DHT22;3789;47.064;15.482;2023-04-24T13:58:26;15.10;99.90
7496;DHT22;3789;47.064;15.482;2023-04-24T14:00:55;14.90;99.90
7496;DHT22;3789;47.064;15.482;2023-04-24T14:03:23;14.80;99.90
7496;DHT22;3789;47.064;15.482;2023-04-24T14:05:53;14.80;99.90
7496;DHT22;3789;47.064;15.482;2023-04-24T14:08:24;14.80;99.90
7496;DHT22;3789;47.064;15.482;2023-04-24T14:11:02;14.80;99.90
7496;DHT22;3789;47.064;15.482;2023-04-24T14:13:32;14.80;99.90
7496;DHT22;3789;47.064;15.482;2023-04-24T14:16:01;14.50;99.90
7496;DHT22;3789;47.064;15.482;2023-04-24T14:18:30;14.40;99.90
7496;DHT22;3789;47.064;15.482;2023-04-24T14:21:03;14.40;99.90
7496;DHT22;3789;47.064;15.482;2023-04-24T14:23:35;14.50;99.90
7496;DHT22;3789;47.064;15.482;2023-04-24T14:26:04;14.50;99.90
7496;DHT22;3789;47.064;15.482;2023-04-24T14:28:34;14.40;99.90
7496;DHT22;3789;47.064;15.482;2023-04-24T14:31:04;14.30;99.90
7496;DHT22;3789;47.064;15.482;2023-04-24T14:33:34;14.20;99.90
7496;DHT22;3789;47.064;15.482;2023-04-24T14:36:13;14.10;99.90
7496;DHT22;3789;47.064;15.482;2023-04-24T14:38:44;13.90;99.90
7496;DHT22;3789;47.064;15.482;2023-04-24T14:41:12;13.80;99.90
7496;DHT22;3789;47.064;15.482;2023-04-24T14:43:40;13.90;99.90
7496;DHT22;3789;47.064;15.482;2023-04-24T14:46:10;13.90;99.90
7496;DHT22;3789;47.064;15.482;2023-04-24T14:48:43;13.90;99.90
7496;DHT22;3789;47.064;15.482;2023-04-24T14:51:12;13.90;99.90
7496;DHT22;3789;47.064;15.482;2023-04-24T14:53:40;13.80;99.90
7496;DHT22;3789;47.064;15.482;2023-04-24T14:56:12;13.70;99.90
7496;DHT22;3789;47.064;15.482;2023-04-24T14:58:43;13.60;99.90
7496;DHT22;3789;47.064;15.482;2023-04-24T15:01:12;13.40;99.90
7496;DHT22;3789;47.064;15.482;2023-04-24T15:03:41;13.30;99.90
7496;DHT22;3789;47.064;15.482;2023-04-24T15:06:11;13.20;99.90
7496;DHT22;3789;47.064;15.482;2023-04-24T15:08:48;13.10;99.90
7496;DHT22;3789;47.064;15.482;2023-04-24T15:11:17;13.00;99.90
7496;DHT22;3789;47.064;15.482;2023-04-24T15:13:45;13.00;99.90
7496;DHT22;3789;47.064;15.482;2023-04-24T15:16:14;12.90;99.90
7496;DHT22;3789;47.064;15.482;2023-04-24T15:18:45;13.00;99.90
7496;DHT22;3789;47.064;15.482;2023-04-24T15:21:13;13.10;99.90
7496;DHT22;3789;47.064;15.482;2023-04-24T15:23:42;13.10;99.90
7496;DHT22;3789;47.064;15.482;2023-04-24T15:26:11;13.10;99.90
7496;DHT22;3789;47.064;15.482;2023-04-24T15:28:47;13.10;99.90
7496;DHT22;3789;47.064;15.482;2023-04-24T15:31:24;13.00;99.90
7496;DHT22;3789;47.064;15.482;2023-04-24T15:33:55;13.00;99.90
7496;DHT22;3789;47.064;15.482;2023-04-24T15:36:26;13.10;99.90
7496;DHT22;3789;47.064;15.482;2023-04-24T15:38:57;12.90;99.90
7496;DHT22;3789;47.064;15.482;2023-04-24T15:41:31;12.90;99.90
7496;DHT22;3789;47.064;15.482;2023-04-24T15:44:02;12.80;99.90
7496;DHT22;3789;47.064;15.482;2023-04-24T15:46:36;12.80;99.90
7496;DHT22;3789;47.064;15.482;2023-04-24T15:49:06;12.70;99.90
7496;DHT22;3789;47.064;15.482;2023-04-24T15:51:36;12.60;99.90
7496;DHT22;3789;47.064;15.482;2023-04-24T15:54:13;12.40;99.90
7496;DHT22;3789;47.064;15.482;2023-04-24T15:56:45;12.30;99.90
7496;DHT22;3789;47.064;15.482;2023-04-24T15:59:14;12.30;99.90
7496;DHT22;3789;47.064;15.482;2023-04-24T16:01:47;12.40;99.90
7496;DHT22;3789;47.064;15.482;2023-04-24T16:04:19;12.30;99.90
7496;DHT22;3789;47.064;15.482;2023-04-24T16:06:54;12.30;99.90
7496;DHT22;3789;47.064;15.482;2023-04-24T16:09:34;12.30;99.90
7496;DHT22;3789;47.064;15.482;2023-04-24T16:12:04;12.30;99.90
7496;DHT22;3789;47.064;15.482;2023-04-24T16:14:40;12.30;99.90
7496;DHT22;3789;47.064;15.482;2023-04-24T16:17:12;12.40;99.90
7496;DHT22;3789;47.064;15.482;2023-04-24T16:19:41;12.40;99.90
7496;DHT22;3789;47.064;15.482;2023-04-24T16:22:10;12.40;99.90
7496;DHT22;3789;47.064;15.482;2023-04-24T16:24:51;12.40;99.90
7496;DHT22;3789;47.064;15.482;2023-04-24T16:27:20;12.40;99.90
7496;DHT22;3789;47.064;15.482;2023-04-24T16:29:54;12.40;99.90
7496;DHT22;3789;47.064;15.482;2023-04-24T16:32:30;12.40;99.90
7496;DHT22;3789;47.064;15.482;2023-04-24T16:34:58;12.40;99.90
7496;DHT22;3789;47.064;15.482;2023-04-24T16:37:28;12.40;99.90
7496;DHT22;3789;47.064;15.482;2023-04-24T16:39:59;12.20;99.90
7496;DHT22;3789;47.064;15.482;2023-04-24T16:42:29;12.10;99.90
7496;DHT22;3789;47.064;15.482;2023-04-24T16:45:05;12.20;99.90
7496;DHT22;3789;47.064;15.482;2023-04-24T16:47:34;12.10;99.90
7496;DHT22;3789;47.064;15.482;2023-04-24T16:50:03;12.10;99.90
7496;DHT22;3789;47.064;15.482;2023-04-24T16:52:34;12.10;99.90
7496;DHT22;3789;47.064;15.482;2023-04-24T16:55:04;12.00;99.90
7496;DHT22;3789;47.064;15.482;2023-04-24T16:57:35;11.90;99.90
7496;DHT22;3789;47.064;15.482;2023-04-24T17:00:07;11.90;99.90
7496;DHT22;3789;47.064;15.482;2023-04-24T17:02:36;11.80;99.90
7496;DHT22;3789;47.064;15.482;2023-04-24T17:05:07;11.80;99.90
7496;DHT22;3789;47.064;15.482;2023-04-24T17:07:37;11.70;99.90
7496;DHT22;3789;47.064;15.482;2023-04-24T17:10:07;11.70;99.90
7496;DHT22;3789;47.064;15.482;2023-04-24T17:12:36;11.60;99.90
7496;DHT22;3789;47.064;15.482;2023-04-24T17:15:04;11.60;99.90